sensor_id;sensor_type;location;lat;lon;timestamp;P1;durP1;ratioP1;P2;durP2;ratioP2
12976;SDS011;6553;48.412;9.514;2022-12-29T00:00:00;1.67;;;0.93;;
12976;SDS011;6553;48.412;9.514;2022-12-29T00:02:37;0.90;;;0.90;;
12976;SDS011;6553;48.412;9.514;2022-12-29T00:05:03;1.48;;;1.17;;
12976;SDS011;6553;48.412;9.514;2022-12-29T00:07:30;0.98;;;0.90;;
12976;SDS011;6553;48.412;9.514;2022-12-29T00:09:55;2.05;;;1.08;;
12976;SDS011;6553;48.412;9.514;2022-12-29T00:12:21;0.90;;;0.90;;
12976;SDS011;6553;48.412;9.514;2022-12-29T00:14:47;1.65;;;1.10;;
12976;SDS011;6553;48.412;9.514;2022-12-29T00:17:31;1.67;;;1.00;;
12976;SDS011;6553;48.412;9.514;2022-12-29T00:19:57;2.63;;;1.10;;
12976;SDS011;6553;48.412;9.514;2022-12-29T00:22:41;1.27;;;0.98;;
12976;SDS011;6553;48.412;9.514;2022-12-29T00:25:25;1.48;;;1.00;;
12976;SDS011;6553;48.412;9.514;2022-12-29T00:28:09;0.98;;;0.88;;
12976;SDS011;6553;48.412;9.514;2022-12-29T00:30:58;1.13;;;1.02;;
12976;SDS011;6553;48.412;9.514;2022-12-29T00:33:44;1.70;;;0.90;;
12976;SDS011;6553;48.412;9.514;2022-12-29T00:36:32;1.13;;;1.02;;
12976;SDS011;6553;48.412;9.514;2022-12-29T00:39:06;1.60;;;0.95;;
12976;SDS011;6553;48.412;9.514;2022-12-29T00:41:55;1.23;;;1.13;;
12976;SDS011;6553;48.412;9.514;2022-12-29T00:44:40;0.75;;;0.75;;
12976;SDS011;6553;48.412;9.514;2022-12-29T00:47:08;1.30;;;1.20;;
12976;SDS011;6553;48.412;9.514;2022-12-29T00:49:34;1.00;;;0.90;;
12976;SDS011;6553;48.412;9.514;2022-12-29T00:54:38;1.10;;;1.00;;
12976;SDS011;6553;48.412;9.514;2022-12-29T00:57:06;1.67;;;1.00;;
12976;SDS011;6553;48.412;9.514;2022-12-29T00:59:34;1.33;;;0.98;;
12976;SDS011;6553;48.412;9.514;2022-12-29T01:02:02;1.85;;;1.10;;
12976;SDS011;6553;48.412;9.514;2022-12-29T01:04:28;0.80;;;0.80;;
12976;SDS011;6553;48.412;9.514;2022-12-29T01:06:54;1.00;;;0.90;;
12976;SDS011;6553;48.412;9.514;2022-12-29T01:09:20;1.40;;;1.20;;
12976;SDS011;6553;48.412;9.514;2022-12-29T01:12:04;1.60;;;1.00;;
12976;SDS011;6553;48.412;9.514;2022-12-29T01:14:32;1.00;;;1.00;;
12976;SDS011;6553;48.412;9.514;2022-12-29T01:16:58;1.15;;;0.90;;
12976;SDS011;6553;48.412;9.514;2022-12-29T01:19:24;1.08;;;0.98;;
12976;SDS011;6553;48.412;9.514;2022-12-29T01:21:50;1.38;;;1.00;;
12976;SDS011;6553;48.412;9.514;2022-12-29T01:24:18;1.33;;;1.20;;
12976;SDS011;6553;48.412;9.514;2022-12-29T01:26:46;1.17;;;1.08;;
12976;SDS011;6553;48.412;9.514;2022-12-29T01:29:12;1.20;;;1.02;;
12976;SDS011;6553;48.412;9.514;2022-12-29T01:31:38;1.33;;;1.10;;
12976;SDS011;6553;48.412;9.514;2022-12-29T01:34:04;1.10;;;1.00;;
12976;SDS011;6553;48.412;9.514;2022-12-29T01:36:31;1.10;;;0.90;;
12976;SDS011;6553;48.412;9.514;2022-12-29T01:38:57;0.65;;;0.65;;
12976;SDS011;6553;48.412;9.514;2022-12-29T01:41:23;1.15;;;1.00;;
12976;SDS011;6553;48.412;9.514;2022-12-29T01:43:51;0.80;;;0.77;;
12976;SDS011;6553;48.412;9.514;2022-12-29T01:46:23;1.20;;;1.10;;
12976;SDS011;6553;48.412;9.514;2022-12-29T01:49:12;2.42;;;1.13;;
12976;SDS011;6553;48.412;9.514;2022-12-29T01:51:57;1.98;;;1.00;;
12976;SDS011;6553;48.412;9.514;2022-12-29T01:54:36;1.10;;;1.00;;
12976;SDS011;6553;48.412;9.514;2022-12-29T01:57:15;1.08;;;0.98;;
12976;SDS011;6553;48.412;9.514;2022-12-29T01:59:48;3.17;;;1.08;;
12976;SDS011;6553;48.412;9.514;2022-12-29T02:02:24;0.88;;;0.88;;
12976;SDS011;6553;48.412;9.514;2022-12-29T02:04:50;0.82;;;0.80;;
12976;SDS011;6553;48.412;9.514;2022-12-29T02:07:21;0.95;;;0.95;;
12976;SDS011;6553;48.412;9.514;2022-12-29T02:09:51;1.25;;;0.80;;
12976;SDS011;6553;48.412;9.514;2022-12-29T02:12:21;1.17;;;0.90;;
12976;SDS011;6553;48.412;9.514;2022-12-29T02:14:49;1.95;;;1.00;;
12976;SDS011;6553;48.412;9.514;2022-12-29T02:23:34;0.93;;;0.70;;
12976;SDS011;6553;48.412;9.514;2022-12-29T02:29:36;0.73;;;0.60;;
12976;SDS011;6553;48.412;9.514;2022-12-29T02:46:47;0.75;;;0.75;;
12976;SDS011;6553;48.412;9.514;2022-12-29T02:52:27;0.82;;;0.82;;
12976;SDS011;6553;48.412;9.514;2022-12-29T02:54:59;1.27;;;0.90;;
12976;SDS011;6553;48.412;9.514;2022-12-29T02:59:52;1.02;;;0.93;;
12976;SDS011;6553;48.412;9.514;2022-12-29T03:08:49;0.90;;;0.90;;
12976;SDS011;6553;48.412;9.514;2022-12-29T03:11:27;0.80;;;0.80;;
12976;SDS011;6553;48.412;9.514;2022-12-29T03:14:30;1.58;;;1.10;;
12976;SDS011;6553;48.412;9.514;2022-12-29T03:17:27;1.40;;;0.95;;
12976;SDS011;6553;48.412;9.514;2022-12-29T03:20:10;1.75;;;1.13;;
12976;SDS011;6553;48.412;9.514;2022-12-29T03:22:52;0.82;;;0.82;;
12976;SDS011;6553;48.412;9.514;2022-12-29T03:25:30;1.25;;;0.82;;
12976;SDS011;6553;48.412;9.514;2022-12-29T03:28:05;0.80;;;0.80;;
12976;SDS011;6553;48.412;9.514;2022-12-29T03:30:42;0.77;;;0.70;;
12976;SDS011;6553;48.412;9.514;2022-12-29T03:33:13;1.33;;;1.10;;
12976;SDS011;6553;48.412;9.514;2022-12-29T03:35:47;1.13;;;0.80;;
12976;SDS011;6553;48.412;9.514;2022-12-29T03:38:19;0.90;;;0.90;;
12976;SDS011;6553;48.412;9.514;2022-12-29T03:40:55;0.85;;;0.82;;
12976;SDS011;6553;48.412;9.514;2022-12-29T03:43:26;0.60;;;0.60;;
12976;SDS011;6553;48.412;9.514;2022-12-29T03:45:53;1.00;;;0.90;;
12976;SDS011;6553;48.412;9.514;2022-12-29T03:48:19;0.93;;;0.80;;
12976;SDS011;6553;48.412;9.514;2022-12-29T03:50:47;1.60;;;1.00;;
12976;SDS011;6553;48.412;9.514;2022-12-29T03:53:14;1.13;;;1.10;;
12976;SDS011;6553;48.412;9.514;2022-12-29T03:55:40;1.25;;;0.90;;
12976;SDS011;6553;48.412;9.514;2022-12-29T03:58:07;1.00;;;1.00;;
12976;SDS011;6553;48.412;9.514;2022-12-29T04:00:51;1.02;;;0.98;;
12976;SDS011;6553;48.412;9.514;2022-12-29T04:03:17;0.77;;;0.77;;
12976;SDS011;6553;48.412;9.514;2022-12-29T04:05:43;1.23;;;0.70;;
12976;SDS011;6553;48.412;9.514;2022-12-29T04:08:09;0.85;;;0.85;;
12976;SDS011;6553;48.412;9.514;2022-12-29T04:10:35;1.77;;;0.70;;
12976;SDS011;6553;48.412;9.514;2022-12-29T04:13:03;3.25;;;1.02;;
12976;SDS011;6553;48.412;9.514;2022-12-29T04:15:30;0.90;;;0.80;;
12976;SDS011;6553;48.412;9.514;2022-12-29T04:17:56;0.80;;;0.80;;
12976;SDS011;6553;48.412;9.514;2022-12-29T04:20:22;0.93;;;0.90;;
12976;SDS011;6553;48.412;9.514;2022-12-29T04:23:07;0.88;;;0.80;;
12976;SDS011;6553;48.412;9.514;2022-12-29T04:25:34;1.17;;;1.08;;
12976;SDS011;6553;48.412;9.514;2022-12-29T04:28:01;0.73;;;0.73;;
12976;SDS011;6553;48.412;9.514;2022-12-29T04:30:59;0.93;;;0.93;;
12976;SDS011;6553;48.412;9.514;2022-12-29T04:33:33;1.00;;;0.90;;
12976;SDS011;6553;48.412;9.514;2022-12-29T04:36:00;1.10;;;1.00;;
12976;SDS011;6553;48.412;9.514;2022-12-29T04:38:26;1.20;;;1.10;;
12976;SDS011;6553;48.412;9.514;2022-12-29T04:40:53;0.90;;;0.90;;
12976;SDS011;6553;48.412;9.514;2022-12-29T04:43:21;1.25;;;0.95;;
12976;SDS011;6553;48.412;9.514;2022-12-29T04:46:03;0.90;;;0.90;;
12976;SDS011;6553;48.412;9.514;2022-12-29T04:48:37;0.73;;;0.73;;
12976;SDS011;6553;48.412;9.514;2022-12-29T04:51:23;0.70;;;0.70;;
12976;SDS011;6553;48.412;9.514;2022-12-29T04:53:49;1.13;;;0.90;;
12976;SDS011;6553;48.412;9.514;2022-12-29T04:56:14;1.00;;;1.00;;
12976;SDS011;6553;48.412;9.514;2022-12-29T04:58:41;1.33;;;0.88;;
12976;SDS011;6553;48.412;9.514;2022-12-29T05:01:07;1.42;;;0.85;;
12976;SDS011;6553;48.412;9.514;2022-12-29T05:03:33;0.90;;;0.80;;
12976;SDS011;6553;48.412;9.514;2022-12-29T05:05:59;0.88;;;0.88;;
12976;SDS011;6553;48.412;9.514;2022-12-29T05:08:26;1.10;;;0.93;;
12976;SDS011;6553;48.412;9.514;2022-12-29T05:10:52;1.00;;;0.90;;
12976;SDS011;6553;48.412;9.514;2022-12-29T05:13:19;0.70;;;0.70;;
12976;SDS011;6553;48.412;9.514;2022-12-29T05:15:50;1.20;;;0.98;;
12976;SDS011;6553;48.412;9.514;2022-12-29T05:18:17;1.20;;;1.10;;
12976;SDS011;6553;48.412;9.514;2022-12-29T05:20:44;1.25;;;0.90;;
12976;SDS011;6553;48.412;9.514;2022-12-29T05:23:10;1.50;;;0.88;;
12976;SDS011;6553;48.412;9.514;2022-12-29T05:25:37;0.93;;;0.88;;
12976;SDS011;6553;48.412;9.514;2022-12-29T05:28:17;1.10;;;0.85;;
12976;SDS011;6553;48.412;9.514;2022-12-29T05:30:50;1.10;;;1.00;;
12976;SDS011;6553;48.412;9.514;2022-12-29T05:33:18;1.13;;;1.00;;
12976;SDS011;6553;48.412;9.514;2022-12-29T05:35:46;0.85;;;0.80;;
12976;SDS011;6553;48.412;9.514;2022-12-29T05:38:12;0.80;;;0.80;;
12976;SDS011;6553;48.412;9.514;2022-12-29T05:40:39;1.70;;;0.90;;
12976;SDS011;6553;48.412;9.514;2022-12-29T05:43:14;1.13;;;0.80;;
12976;SDS011;6553;48.412;9.514;2022-12-29T05:46:07;1.20;;;0.90;;
12976;SDS011;6553;48.412;9.514;2022-12-29T05:48:45;0.90;;;0.77;;
12976;SDS011;6553;48.412;9.514;2022-12-29T05:51:34;1.13;;;0.90;;
12976;SDS011;6553;48.412;9.514;2022-12-29T05:54:00;0.88;;;0.88;;
12976;SDS011;6553;48.412;9.514;2022-12-29T05:56:26;0.60;;;0.60;;
12976;SDS011;6553;48.412;9.514;2022-12-29T05:58:56;1.48;;;0.90;;
12976;SDS011;6553;48.412;9.514;2022-12-29T06:01:22;1.55;;;0.82;;
12976;SDS011;6553;48.412;9.514;2022-12-29T06:03:48;0.93;;;0.80;;
12976;SDS011;6553;48.412;9.514;2022-12-29T06:06:14;0.70;;;0.70;;
12976;SDS011;6553;48.412;9.514;2022-12-29T06:08:41;0.70;;;0.70;;
12976;SDS011;6553;48.412;9.514;2022-12-29T06:11:09;0.80;;;0.80;;
12976;SDS011;6553;48.412;9.514;2022-12-29T06:13:35;1.15;;;1.13;;
12976;SDS011;6553;48.412;9.514;2022-12-29T06:16:01;2.00;;;0.80;;
12976;SDS011;6553;48.412;9.514;2022-12-29T06:18:27;1.20;;;0.90;;
12976;SDS011;6553;48.412;9.514;2022-12-29T06:20:58;1.63;;;1.23;;
12976;SDS011;6553;48.412;9.514;2022-12-29T06:23:29;1.13;;;0.90;;
12976;SDS011;6553;48.412;9.514;2022-12-29T06:25:56;0.85;;;0.82;;
12976;SDS011;6553;48.412;9.514;2022-12-29T06:28:22;1.10;;;0.95;;
12976;SDS011;6553;48.412;9.514;2022-12-29T06:30:49;0.80;;;0.80;;
12976;SDS011;6553;48.412;9.514;2022-12-29T06:33:16;0.80;;;0.80;;
12976;SDS011;6553;48.412;9.514;2022-12-29T06:35:43;1.65;;;1.17;;
12976;SDS011;6553;48.412;9.514;2022-12-29T06:38:08;0.73;;;0.73;;
12976;SDS011;6553;48.412;9.514;2022-12-29T06:40:34;0.98;;;0.88;;
12976;SDS011;6553;48.412;9.514;2022-12-29T06:43:00;0.80;;;0.80;;
12976;SDS011;6553;48.412;9.514;2022-12-29T06:46:01;1.48;;;1.00;;
12976;SDS011;6553;48.412;9.514;2022-12-29T06:48:27;1.17;;;0.80;;
12976;SDS011;6553;48.412;9.514;2022-12-29T06:50:53;1.33;;;1.15;;
12976;SDS011;6553;48.412;9.514;2022-12-29T06:53:18;1.17;;;0.90;;
12976;SDS011;6553;48.412;9.514;2022-12-29T06:55:44;1.83;;;0.82;;
12976;SDS011;6553;48.412;9.514;2022-12-29T06:58:10;0.93;;;0.85;;
12976;SDS011;6553;48.412;9.514;2022-12-29T07:00:35;0.88;;;0.80;;
12976;SDS011;6553;48.412;9.514;2022-12-29T07:03:01;0.90;;;0.80;;
12976;SDS011;6553;48.412;9.514;2022-12-29T07:05:27;0.80;;;0.77;;
12976;SDS011;6553;48.412;9.514;2022-12-29T07:07:53;0.75;;;0.75;;
12976;SDS011;6553;48.412;9.514;2022-12-29T07:10:20;0.93;;;0.90;;
12976;SDS011;6553;48.412;9.514;2022-12-29T07:12:46;1.10;;;1.00;;
12976;SDS011;6553;48.412;9.514;2022-12-29T07:15:12;0.80;;;0.73;;
12976;SDS011;6553;48.412;9.514;2022-12-29T07:17:38;1.27;;;0.90;;
12976;SDS011;6553;48.412;9.514;2022-12-29T07:20:04;1.58;;;0.82;;
12976;SDS011;6553;48.412;9.514;2022-12-29T07:22:31;1.00;;;1.00;;
12976;SDS011;6553;48.412;9.514;2022-12-29T07:24:56;1.20;;;1.05;;
12976;SDS011;6553;48.412;9.514;2022-12-29T07:27:22;0.95;;;0.82;;
12976;SDS011;6553;48.412;9.514;2022-12-29T07:29:48;0.70;;;0.63;;
12976;SDS011;6553;48.412;9.514;2022-12-29T07:32:13;0.98;;;0.98;;
12976;SDS011;6553;48.412;9.514;2022-12-29T07:34:39;1.20;;;0.95;;
12976;SDS011;6553;48.412;9.514;2022-12-29T07:37:05;0.70;;;0.70;;
12976;SDS011;6553;48.412;9.514;2022-12-29T07:39:31;1.65;;;0.80;;
12976;SDS011;6553;48.412;9.514;2022-12-29T07:41:57;1.35;;;1.00;;
12976;SDS011;6553;48.412;9.514;2022-12-29T07:44:24;1.00;;;0.80;;
12976;SDS011;6553;48.412;9.514;2022-12-29T07:47:09;0.95;;;0.93;;
12976;SDS011;6553;48.412;9.514;2022-12-29T07:49:34;2.83;;;1.00;;
12976;SDS011;6553;48.412;9.514;2022-12-29T07:52:00;0.73;;;0.73;;
12976;SDS011;6553;48.412;9.514;2022-12-29T07:54:26;0.77;;;0.77;;
12976;SDS011;6553;48.412;9.514;2022-12-29T07:56:52;2.05;;;0.98;;
12976;SDS011;6553;48.412;9.514;2022-12-29T07:59:18;1.42;;;0.90;;
12976;SDS011;6553;48.412;9.514;2022-12-29T08:01:43;0.70;;;0.70;;
12976;SDS011;6553;48.412;9.514;2022-12-29T08:04:09;1.33;;;1.20;;
12976;SDS011;6553;48.412;9.514;2022-12-29T08:06:35;0.90;;;0.90;;
12976;SDS011;6553;48.412;9.514;2022-12-29T08:09:02;1.10;;;1.00;;
12976;SDS011;6553;48.412;9.514;2022-12-29T08:11:29;1.30;;;1.05;;
12976;SDS011;6553;48.412;9.514;2022-12-29T08:13:54;1.92;;;0.98;;
12976;SDS011;6553;48.412;9.514;2022-12-29T08:16:20;1.08;;;0.98;;
12976;SDS011;6553;48.412;9.514;2022-12-29T08:18:46;0.80;;;0.80;;
12976;SDS011;6553;48.412;9.514;2022-12-29T08:21:11;0.70;;;0.70;;
12976;SDS011;6553;48.412;9.514;2022-12-29T08:23:38;0.95;;;0.80;;
12976;SDS011;6553;48.412;9.514;2022-12-29T08:26:04;1.00;;;0.90;;
12976;SDS011;6553;48.412;9.514;2022-12-29T08:28:31;1.02;;;0.90;;
12976;SDS011;6553;48.412;9.514;2022-12-29T08:30:58;2.67;;;0.93;;
12976;SDS011;6553;48.412;9.514;2022-12-29T08:33:26;0.80;;;0.80;;
12976;SDS011;6553;48.412;9.514;2022-12-29T08:35:58;1.33;;;0.90;;
12976;SDS011;6553;48.412;9.514;2022-12-29T08:38:27;1.20;;;1.00;;
12976;SDS011;6553;48.412;9.514;2022-12-29T08:40:54;0.73;;;0.73;;
12976;SDS011;6553;48.412;9.514;2022-12-29T08:43:20;0.85;;;0.70;;
12976;SDS011;6553;48.412;9.514;2022-12-29T08:45:47;1.05;;;0.90;;
12976;SDS011;6553;48.412;9.514;2022-12-29T08:48:12;2.53;;;1.08;;
12976;SDS011;6553;48.412;9.514;2022-12-29T08:50:38;1.35;;;0.98;;
12976;SDS011;6553;48.412;9.514;2022-12-29T08:53:04;1.55;;;1.00;;
12976;SDS011;6553;48.412;9.514;2022-12-29T08:55:29;1.40;;;0.90;;
12976;SDS011;6553;48.412;9.514;2022-12-29T08:57:55;1.58;;;0.98;;
12976;SDS011;6553;48.412;9.514;2022-12-29T09:00:22;1.60;;;0.90;;
12976;SDS011;6553;48.412;9.514;2022-12-29T09:02:50;1.00;;;1.00;;
12976;SDS011;6553;48.412;9.514;2022-12-29T09:05:16;1.15;;;0.98;;
12976;SDS011;6553;48.412;9.514;2022-12-29T09:07:42;1.58;;;0.98;;
12976;SDS011;6553;48.412;9.514;2022-12-29T09:10:08;1.23;;;0.85;;
12976;SDS011;6553;48.412;9.514;2022-12-29T09:12:33;1.13;;;1.00;;
12976;SDS011;6553;48.412;9.514;2022-12-29T09:14:59;2.67;;;0.90;;
12976;SDS011;6553;48.412;9.514;2022-12-29T09:17:25;1.35;;;0.95;;
12976;SDS011;6553;48.412;9.514;2022-12-29T09:20:07;2.20;;;1.13;;
12976;SDS011;6553;48.412;9.514;2022-12-29T09:22:34;0.90;;;0.90;;
12976;SDS011;6553;48.412;9.514;2022-12-29T09:25:01;1.25;;;0.90;;
12976;SDS011;6553;48.412;9.514;2022-12-29T09:27:27;1.10;;;1.00;;
12976;SDS011;6553;48.412;9.514;2022-12-29T09:29:53;1.02;;;0.90;;
12976;SDS011;6553;48.412;9.514;2022-12-29T09:32:19;0.98;;;0.88;;
12976;SDS011;6553;48.412;9.514;2022-12-29T09:34:44;2.03;;;0.98;;
12976;SDS011;6553;48.412;9.514;2022-12-29T09:37:10;1.30;;;1.00;;
12976;SDS011;6553;48.412;9.514;2022-12-29T09:39:36;1.52;;;0.95;;
12976;SDS011;6553;48.412;9.514;2022-12-29T09:44:54;1.10;;;1.00;;
12976;SDS011;6553;48.412;9.514;2022-12-29T09:47:40;1.50;;;0.95;;
12976;SDS011;6553;48.412;9.514;2022-12-29T09:50:32;1.60;;;1.33;;
12976;SDS011;6553;48.412;9.514;2022-12-29T09:53:08;1.23;;;1.00;;
12976;SDS011;6553;48.412;9.514;2022-12-29T09:55:45;1.63;;;1.30;;
12976;SDS011;6553;48.412;9.514;2022-12-29T09:58:21;1.85;;;1.20;;
12976;SDS011;6553;48.412;9.514;2022-12-29T10:09:12;2.72;;;1.10;;
12976;SDS011;6553;48.412;9.514;2022-12-29T10:15:26;1.35;;;1.13;;
12976;SDS011;6553;48.412;9.514;2022-12-29T10:24:07;0.98;;;0.85;;
12976;SDS011;6553;48.412;9.514;2022-12-29T10:26:38;1.85;;;0.88;;
12976;SDS011;6553;48.412;9.514;2022-12-29T10:29:20;0.90;;;0.90;;
12976;SDS011;6553;48.412;9.514;2022-12-29T10:31:58;1.92;;;1.08;;
12976;SDS011;6553;48.412;9.514;2022-12-29T10:34:33;2.13;;;1.30;;
12976;SDS011;6553;48.412;9.514;2022-12-29T10:39:45;1.33;;;1.23;;
12976;SDS011;6553;48.412;9.514;2022-12-29T10:45:02;1.35;;;1.08;;
12976;SDS011;6553;48.412;9.514;2022-12-29T10:47:33;1.02;;;0.95;;
12976;SDS011;6553;48.412;9.514;2022-12-29T10:50:05;0.95;;;0.95;;
12976;SDS011;6553;48.412;9.514;2022-12-29T10:52:32;1.10;;;0.90;;
12976;SDS011;6553;48.412;9.514;2022-12-29T10:55:25;1.55;;;1.02;;
12976;SDS011;6553;48.412;9.514;2022-12-29T10:57:59;1.85;;;0.70;;
12976;SDS011;6553;48.412;9.514;2022-12-29T11:00:31;1.42;;;1.00;;
12976;SDS011;6553;48.412;9.514;2022-12-29T11:08:38;1.05;;;0.95;;
12976;SDS011;6553;48.412;9.514;2022-12-29T11:11:21;1.25;;;1.15;;
12976;SDS011;6553;48.412;9.514;2022-12-29T11:16:58;1.60;;;0.93;;
12976;SDS011;6553;48.412;9.514;2022-12-29T11:19:31;2.13;;;1.30;;
12976;SDS011;6553;48.412;9.514;2022-12-29T11:24:50;1.67;;;1.00;;
12976;SDS011;6553;48.412;9.514;2022-12-29T11:27:22;0.88;;;0.80;;
12976;SDS011;6553;48.412;9.514;2022-12-29T11:29:51;1.20;;;1.10;;
12976;SDS011;6553;48.412;9.514;2022-12-29T11:34:50;0.90;;;0.90;;
12976;SDS011;6553;48.412;9.514;2022-12-29T11:37:17;1.17;;;1.02;;
12976;SDS011;6553;48.412;9.514;2022-12-29T11:40:05;1.88;;;1.13;;
12976;SDS011;6553;48.412;9.514;2022-12-29T11:45:48;2.60;;;1.20;;
12976;SDS011;6553;48.412;9.514;2022-12-29T11:48:18;1.90;;;1.08;;
12976;SDS011;6553;48.412;9.514;2022-12-29T11:50:53;0.85;;;0.70;;
12976;SDS011;6553;48.412;9.514;2022-12-29T11:53:29;0.98;;;0.90;;
12976;SDS011;6553;48.412;9.514;2022-12-29T11:56:05;1.00;;;0.90;;
12976;SDS011;6553;48.412;9.514;2022-12-29T11:58:40;1.52;;;0.95;;
12976;SDS011;6553;48.412;9.514;2022-12-29T12:01:07;0.85;;;0.80;;
12976;SDS011;6553;48.412;9.514;2022-12-29T12:03:45;1.67;;;1.00;;
12976;SDS011;6553;48.412;9.514;2022-12-29T12:06:27;1.20;;;1.10;;
12976;SDS011;6553;48.412;9.514;2022-12-29T12:08:59;1.30;;;0.82;;
12976;SDS011;6553;48.412;9.514;2022-12-29T12:11:48;0.80;;;0.80;;
12976;SDS011;6553;48.412;9.514;2022-12-29T12:14:20;0.82;;;0.80;;
12976;SDS011;6553;48.412;9.514;2022-12-29T12:20:19;0.93;;;0.85;;
12976;SDS011;6553;48.412;9.514;2022-12-29T12:26:04;0.90;;;0.90;;
12976;SDS011;6553;48.412;9.514;2022-12-29T12:34:08;1.40;;;1.15;;
12976;SDS011;6553;48.412;9.514;2022-12-29T12:36:47;1.50;;;0.90;;
12976;SDS011;6553;48.412;9.514;2022-12-29T12:42:37;1.73;;;1.10;;
12976;SDS011;6553;48.412;9.514;2022-12-29T12:51:58;1.02;;;0.90;;
12976;SDS011;6553;48.412;9.514;2022-12-29T12:57:57;1.05;;;1.02;;
12976;SDS011;6553;48.412;9.514;2022-12-29T13:06:04;0.90;;;0.90;;
12976;SDS011;6553;48.412;9.514;2022-12-29T13:21:47;1.13;;;1.02;;
12976;SDS011;6553;48.412;9.514;2022-12-29T13:30:05;2.00;;;0.90;;
12976;SDS011;6553;48.412;9.514;2022-12-29T13:32:43;1.40;;;1.17;;
12976;SDS011;6553;48.412;9.514;2022-12-29T13:38:20;0.98;;;0.98;;
12976;SDS011;6553;48.412;9.514;2022-12-29T13:41:08;1.23;;;1.13;;
12976;SDS011;6553;48.412;9.514;2022-12-29T13:43:42;1.33;;;1.00;;
12976;SDS011;6553;48.412;9.514;2022-12-29T13:46:20;1.65;;;1.00;;
12976;SDS011;6553;48.412;9.514;2022-12-29T13:48:53;0.95;;;0.93;;
12976;SDS011;6553;48.412;9.514;2022-12-29T13:51:28;1.48;;;1.10;;
12976;SDS011;6553;48.412;9.514;2022-12-29T13:54:10;1.30;;;1.20;;
12976;SDS011;6553;48.412;9.514;2022-12-29T13:57:08;1.50;;;1.40;;
12976;SDS011;6553;48.412;9.514;2022-12-29T14:00:01;1.20;;;1.08;;
12976;SDS011;6553;48.412;9.514;2022-12-29T14:07:45;3.42;;;1.27;;
12976;SDS011;6553;48.412;9.514;2022-12-29T14:11:13;4.03;;;1.73;;
12976;SDS011;6553;48.412;9.514;2022-12-29T14:13:17;3.72;;;1.33;;
12976;SDS011;6553;48.412;9.514;2022-12-29T14:15:54;4.68;;;1.20;;
12976;SDS011;6553;48.412;9.514;2022-12-29T14:18:27;2.05;;;1.25;;
12976;SDS011;6553;48.412;9.514;2022-12-29T14:20:58;2.88;;;1.33;;
12976;SDS011;6553;48.412;9.514;2022-12-29T14:23:41;3.53;;;1.27;;
12976;SDS011;6553;48.412;9.514;2022-12-29T14:28:56;2.42;;;1.25;;
12976;SDS011;6553;48.412;9.514;2022-12-29T14:31:49;3.60;;;2.00;;
12976;SDS011;6553;48.412;9.514;2022-12-29T14:44:45;2.50;;;1.55;;
12976;SDS011;6553;48.412;9.514;2022-12-29T14:47:51;2.92;;;1.45;;
12976;SDS011;6553;48.412;9.514;2022-12-29T14:50:37;3.70;;;1.65;;
12976;SDS011;6553;48.412;9.514;2022-12-29T14:56:12;1.95;;;1.23;;
12976;SDS011;6553;48.412;9.514;2022-12-29T14:58:46;1.95;;;1.30;;
12976;SDS011;6553;48.412;9.514;2022-12-29T15:04:18;3.03;;;1.58;;
12976;SDS011;6553;48.412;9.514;2022-12-29T15:06:49;4.03;;;1.52;;
12976;SDS011;6553;48.412;9.514;2022-12-29T15:09:24;3.00;;;1.40;;
12976;SDS011;6553;48.412;9.514;2022-12-29T15:11:57;4.53;;;1.40;;
12976;SDS011;6553;48.412;9.514;2022-12-29T15:14:38;2.05;;;1.20;;
12976;SDS011;6553;48.412;9.514;2022-12-29T15:20:14;2.10;;;1.35;;
12976;SDS011;6553;48.412;9.514;2022-12-29T15:25:23;1.88;;;1.40;;
12976;SDS011;6553;48.412;9.514;2022-12-29T15:27:51;1.63;;;1.52;;
12976;SDS011;6553;48.412;9.514;2022-12-29T15:30:24;3.60;;;1.50;;
12976;SDS011;6553;48.412;9.514;2022-12-29T15:32:50;2.30;;;1.25;;
12976;SDS011;6553;48.412;9.514;2022-12-29T15:38:01;3.22;;;1.50;;
12976;SDS011;6553;48.412;9.514;2022-12-29T15:41:02;4.15;;;1.40;;
12976;SDS011;6553;48.412;9.514;2022-12-29T15:43:42;5.03;;;1.73;;
12976;SDS011;6553;48.412;9.514;2022-12-29T15:46:30;1.65;;;1.30;;
12976;SDS011;6553;48.412;9.514;2022-12-29T15:48:57;2.70;;;1.40;;
12976;SDS011;6553;48.412;9.514;2022-12-29T15:51:41;2.13;;;1.35;;
12976;SDS011;6553;48.412;9.514;2022-12-29T15:54:15;1.85;;;1.40;;
12976;SDS011;6553;48.412;9.514;2022-12-29T15:56:45;2.42;;;1.48;;
12976;SDS011;6553;48.412;9.514;2022-12-29T15:59:22;1.40;;;1.30;;
12976;SDS011;6553;48.412;9.514;2022-12-29T16:01:59;1.13;;;0.90;;
12976;SDS011;6553;48.412;9.514;2022-12-29T16:04:28;1.50;;;1.20;;
12976;SDS011;6553;48.412;9.514;2022-12-29T16:07:01;2.58;;;1.42;;
12976;SDS011;6553;48.412;9.514;2022-12-29T16:09:46;3.00;;;1.40;;
12976;SDS011;6553;48.412;9.514;2022-12-29T16:12:22;2.15;;;1.52;;
12976;SDS011;6553;48.412;9.514;2022-12-29T16:14:59;2.30;;;1.13;;
12976;SDS011;6553;48.412;9.514;2022-12-29T16:17:28;2.60;;;1.48;;
12976;SDS011;6553;48.412;9.514;2022-12-29T16:19:59;1.70;;;1.38;;
12976;SDS011;6553;48.412;9.514;2022-12-29T16:22:33;2.60;;;1.60;;
12976;SDS011;6553;48.412;9.514;2022-12-29T16:25:19;2.58;;;1.33;;
12976;SDS011;6553;48.412;9.514;2022-12-29T16:27:50;1.40;;;1.23;;
12976;SDS011;6553;48.412;9.514;2022-12-29T16:32:48;1.50;;;1.40;;
12976;SDS011;6553;48.412;9.514;2022-12-29T16:35:25;2.08;;;1.20;;
12976;SDS011;6553;48.412;9.514;2022-12-29T16:38:30;1.40;;;1.10;;
12976;SDS011;6553;48.412;9.514;2022-12-29T16:41:01;1.35;;;1.10;;
12976;SDS011;6553;48.412;9.514;2022-12-29T16:43:32;2.20;;;1.33;;
12976;SDS011;6553;48.412;9.514;2022-12-29T16:46:18;2.40;;;1.30;;
12976;SDS011;6553;48.412;9.514;2022-12-29T16:48:54;2.53;;;1.30;;
12976;SDS011;6553;48.412;9.514;2022-12-29T16:51:29;2.42;;;1.30;;
12976;SDS011;6553;48.412;9.514;2022-12-29T16:54:01;1.45;;;1.13;;
12976;SDS011;6553;48.412;9.514;2022-12-29T16:56:30;2.10;;;1.20;;
12976;SDS011;6553;48.412;9.514;2022-12-29T16:59:05;1.20;;;1.10;;
12976;SDS011;6553;48.412;9.514;2022-12-29T17:01:44;1.55;;;1.15;;
12976;SDS011;6553;48.412;9.514;2022-12-29T17:04:10;1.63;;;1.20;;
12976;SDS011;6553;48.412;9.514;2022-12-29T17:06:38;1.70;;;1.38;;
12976;SDS011;6553;48.412;9.514;2022-12-29T17:09:21;4.43;;;1.50;;
12976;SDS011;6553;48.412;9.514;2022-12-29T17:11:50;1.45;;;1.35;;
12976;SDS011;6553;48.412;9.514;2022-12-29T17:16:57;1.88;;;1.20;;
12976;SDS011;6553;48.412;9.514;2022-12-29T17:19:28;1.50;;;1.40;;
12976;SDS011;6553;48.412;9.514;2022-12-29T17:21:57;1.75;;;1.30;;
12976;SDS011;6553;48.412;9.514;2022-12-29T17:24:23;2.15;;;1.30;;
12976;SDS011;6553;48.412;9.514;2022-12-29T17:26:50;1.83;;;1.40;;
12976;SDS011;6553;48.412;9.514;2022-12-29T17:29:35;1.92;;;1.30;;
12976;SDS011;6553;48.412;9.514;2022-12-29T17:32:05;2.45;;;1.80;;
12976;SDS011;6553;48.412;9.514;2022-12-29T17:34:36;1.83;;;1.33;;
12976;SDS011;6553;48.412;9.514;2022-12-29T17:37:11;1.58;;;1.17;;
12976;SDS011;6553;48.412;9.514;2022-12-29T17:40:03;1.85;;;1.50;;
12976;SDS011;6553;48.412;9.514;2022-12-29T17:42:32;1.83;;;1.30;;
12976;SDS011;6553;48.412;9.514;2022-12-29T17:45:05;2.70;;;1.50;;
12976;SDS011;6553;48.412;9.514;2022-12-29T17:47:36;2.63;;;1.40;;
12976;SDS011;6553;48.412;9.514;2022-12-29T17:50:02;2.58;;;1.02;;
12976;SDS011;6553;48.412;9.514;2022-12-29T17:52:28;2.58;;;1.40;;
12976;SDS011;6553;48.412;9.514;2022-12-29T17:54:54;2.10;;;1.50;;
12976;SDS011;6553;48.412;9.514;2022-12-29T17:57:20;2.63;;;1.38;;
12976;SDS011;6553;48.412;9.514;2022-12-29T17:59:46;1.95;;;1.40;;
12976;SDS011;6553;48.412;9.514;2022-12-29T18:02:18;1.45;;;1.35;;
12976;SDS011;6553;48.412;9.514;2022-12-29T18:05:04;2.15;;;1.20;;
12976;SDS011;6553;48.412;9.514;2022-12-29T18:07:40;2.22;;;1.33;;
12976;SDS011;6553;48.412;9.514;2022-12-29T18:10:06;1.88;;;1.55;;
12976;SDS011;6553;48.412;9.514;2022-12-29T18:12:37;1.60;;;1.50;;
12976;SDS011;6553;48.412;9.514;2022-12-29T18:15:15;2.05;;;1.27;;
12976;SDS011;6553;48.412;9.514;2022-12-29T18:17:49;3.40;;;1.05;;
12976;SDS011;6553;48.412;9.514;2022-12-29T18:20:25;1.65;;;1.35;;
12976;SDS011;6553;48.412;9.514;2022-12-29T18:22:52;1.88;;;1.20;;